createdAt,value
2022-12-31T00:00:21.341Z,20.80
2022-12-31T00:02:48.294Z,21.63
2022-12-31T00:05:15.313Z,20.20
2022-12-31T00:10:08.792Z,21.60
2022-12-31T00:12:35.711Z,21.10
2022-12-31T00:15:02.737Z,20.60
2022-12-31T00:17:30.315Z,20.87
2022-12-31T00:19:57.222Z,22.50
2022-12-31T00:22:24.197Z,21.37
2022-12-31T00:24:51.140Z,21.40
2022-12-31T00:27:18.081Z,22.03
2022-12-31T00:29:45.044Z,20.90
2022-12-31T00:32:12.028Z,20.33
2022-12-31T00:34:39.044Z,19.90
2022-12-31T00:37:05.979Z,21.50
2022-12-31T00:39:32.959Z,20.37
2022-12-31T00:42:00.110Z,20.53
2022-12-31T00:44:27.088Z,20.30
2022-12-31T00:46:54.042Z,21.40
2022-12-31T00:49:20.979Z,22.87
2022-12-31T00:51:48.211Z,21.20
2022-12-31T00:54:15.384Z,21.07
2022-12-31T00:56:42.445Z,21.37
2022-12-31T00:59:09.331Z,23.47
2022-12-31T01:01:39.708Z,21.40
2022-12-31T01:04:20.638Z,21.67
2022-12-31T01:06:48.033Z,22.57
2022-12-31T01:09:16.757Z,21.27
2022-12-31T01:11:43.820Z,22.97
2022-12-31T01:14:18.248Z,22.00
2022-12-31T01:16:52.088Z,20.00
2022-12-31T01:19:26.997Z,22.43
2022-12-31T01:21:55.290Z,22.80
2022-12-31T01:24:22.607Z,22.00
2022-12-31T01:26:50.807Z,22.87
2022-12-31T01:29:17.916Z,22.30
2022-12-31T01:31:44.915Z,22.80
2022-12-31T01:34:11.998Z,20.63
2022-12-31T01:36:39.240Z,20.50
2022-12-31T01:39:08.417Z,21.47
2022-12-31T01:41:40.812Z,21.80
2022-12-31T01:44:13.759Z,19.40
2022-12-31T01:46:49.737Z,19.40
2022-12-31T01:49:45.341Z,19.80
2022-12-31T01:52:20.084Z,19.40
2022-12-31T01:54:58.350Z,18.50
2022-12-31T01:57:26.648Z,19.37
2022-12-31T01:59:55.667Z,19.70
2022-12-31T02:02:23.354Z,19.30
2022-12-31T02:04:53.409Z,19.13
2022-12-31T02:07:20.334Z,19.33
2022-12-31T02:09:47.318Z,20.20
2022-12-31T02:12:14.499Z,20.27
2022-12-31T02:14:44.764Z,19.10
2022-12-31T02:17:43.212Z,19.43
2022-12-31T02:20:57.170Z,18.53
2022-12-31T02:23:55.209Z,18.90
2022-12-31T02:26:49.855Z,18.93
2022-12-31T02:29:47.913Z,18.73
2022-12-31T02:32:23.209Z,18.17
2022-12-31T02:35:04.852Z,18.07
2022-12-31T02:37:33.883Z,20.03
2022-12-31T02:40:01.531Z,20.30
2022-12-31T02:42:28.539Z,19.00
2022-12-31T02:44:55.504Z,20.10
2022-12-31T02:47:41.314Z,20.10
2022-12-31T02:50:26.189Z,20.40
2022-12-31T02:53:24.956Z,19.10
2022-12-31T02:56:05.509Z,19.33
2022-12-31T03:00:01.427Z,18.43
2022-12-31T03:02:31.048Z,19.50
2022-12-31T03:05:01.634Z,19.93
2022-12-31T03:07:32.103Z,18.53
2022-12-31T03:10:01.139Z,19.40
2022-12-31T03:12:47.958Z,19.60
2022-12-31T03:15:31.013Z,20.13
2022-12-31T03:18:12.552Z,19.43
2022-12-31T03:21:06.315Z,19.30
2022-12-31T03:23:36.231Z,19.40
2022-12-31T03:26:11.913Z,18.97
2022-12-31T03:28:47.609Z,19.30
2022-12-31T03:31:14.897Z,19.33
2022-12-31T03:33:42.476Z,17.93
2022-12-31T03:36:13.525Z,17.00
2022-12-31T03:38:41.101Z,19.03
2022-12-31T03:41:11.073Z,18.67
2022-12-31T03:43:38.251Z,19.10
2022-12-31T03:46:05.389Z,18.03
2022-12-31T03:48:32.415Z,17.30
2022-12-31T03:50:59.319Z,18.80
2022-12-31T03:53:27.316Z,17.90
2022-12-31T03:55:54.522Z,29.17
2022-12-31T03:58:22.508Z,38.57
2022-12-31T04:00:50.156Z,48.07
2022-12-31T04:03:17.335Z,38.47
2022-12-31T04:05:44.345Z,20.37
2022-12-31T04:08:11.288Z,18.40
2022-12-31T04:10:38.253Z,17.57
2022-12-31T04:13:05.251Z,17.37
2022-12-31T04:15:32.302Z,17.40
2022-12-31T04:17:59.331Z,18.33
2022-12-31T04:20:26.449Z,17.87
2022-12-31T04:22:53.368Z,18.37
2022-12-31T04:25:20.297Z,17.33
2022-12-31T04:27:47.179Z,17.90
2022-12-31T04:30:15.067Z,16.17
2022-12-31T04:32:42.418Z,16.20
2022-12-31T04:35:11.180Z,17.70
2022-12-31T04:37:38.127Z,17.37
2022-12-31T04:40:07.228Z,18.00
2022-12-31T04:42:35.410Z,19.20
2022-12-31T04:45:02.466Z,18.20
2022-12-31T04:47:29.401Z,20.00
2022-12-31T04:49:56.335Z,18.33
2022-12-31T04:52:23.736Z,19.43
2022-12-31T04:54:51.038Z,18.30
2022-12-31T04:57:18.000Z,20.00
2022-12-31T04:59:44.958Z,19.03
2022-12-31T05:02:12.168Z,20.07
2022-12-31T05:04:39.234Z,20.50
2022-12-31T05:07:06.211Z,18.10
2022-12-31T05:09:33.180Z,17.67
2022-12-31T05:12:00.110Z,17.30
2022-12-31T05:14:27.049Z,18.90
2022-12-31T05:16:54.141Z,18.80
2022-12-31T05:19:21.123Z,19.13
2022-12-31T05:22:07.966Z,19.10
2022-12-31T05:24:34.814Z,19.73
2022-12-31T05:27:02.111Z,18.67
2022-12-31T05:29:29.057Z,18.40
2022-12-31T05:31:55.907Z,18.30
2022-12-31T05:34:22.823Z,18.80
2022-12-31T05:36:49.720Z,20.13
2022-12-31T05:39:16.693Z,18.90
2022-12-31T05:41:43.604Z,19.07
2022-12-31T05:44:11.114Z,19.00
2022-12-31T05:46:37.993Z,18.90
2022-12-31T05:49:05.064Z,19.87
2022-12-31T05:51:31.977Z,18.53
2022-12-31T05:53:58.881Z,16.63
2022-12-31T05:56:25.863Z,17.50
2022-12-31T05:58:52.745Z,18.60
2022-12-31T06:01:19.785Z,18.07
2022-12-31T06:03:47.119Z,17.60
2022-12-31T06:06:14.263Z,18.97
2022-12-31T06:08:41.351Z,17.47
2022-12-31T06:11:08.427Z,18.17
2022-12-31T06:13:35.391Z,17.50
2022-12-31T06:16:10.642Z,17.60
2022-12-31T06:18:37.664Z,18.97
2022-12-31T06:21:05.219Z,16.70
2022-12-31T06:23:32.545Z,17.03
2022-12-31T06:26:04.429Z,16.93
2022-12-31T06:28:31.338Z,17.77
2022-12-31T06:31:03.161Z,17.03
2022-12-31T06:33:30.521Z,17.10
2022-12-31T06:36:00.256Z,17.00
2022-12-31T06:38:30.449Z,16.80
2022-12-31T06:40:57.854Z,17.23
2022-12-31T06:43:24.747Z,16.27
2022-12-31T06:45:51.643Z,17.10
2022-12-31T06:48:18.728Z,15.00
2022-12-31T06:50:45.664Z,17.40
2022-12-31T06:53:12.585Z,15.00
2022-12-31T06:55:39.959Z,16.50
2022-12-31T06:58:13.138Z,15.63
2022-12-31T07:01:33.486Z,16.23
2022-12-31T07:04:38.260Z,16.53
2022-12-31T07:07:27.546Z,16.10
2022-12-31T07:10:24.106Z,17.00
2022-12-31T07:13:27.475Z,17.00
2022-12-31T07:16:16.103Z,17.13
2022-12-31T07:18:55.975Z,16.03
2022-12-31T07:21:35.290Z,16.23
2022-12-31T07:24:02.841Z,15.73
2022-12-31T07:26:42.966Z,17.20
2022-12-31T07:29:39.167Z,16.60
2022-12-31T07:32:37.949Z,18.23
2022-12-31T07:35:18.236Z,16.83
2022-12-31T07:38:12.821Z,17.13
2022-12-31T07:40:57.950Z,15.83
2022-12-31T07:43:52.931Z,16.60
2022-12-31T07:46:30.596Z,18.60
2022-12-31T07:48:58.836Z,17.37
2022-12-31T07:51:26.426Z,20.80
2022-12-31T07:53:53.408Z,19.80
2022-12-31T07:56:20.380Z,19.60
2022-12-31T07:58:50.225Z,17.60
2022-12-31T08:01:36.834Z,20.13
2022-12-31T08:04:17.602Z,19.90
2022-12-31T08:07:26.383Z,18.10
2022-12-31T08:10:57.616Z,15.50
2022-12-31T08:13:24.747Z,17.63
2022-12-31T08:15:52.185Z,17.07
2022-12-31T08:18:19.413Z,16.60
2022-12-31T08:21:15.821Z,16.63
2022-12-31T08:24:16.416Z,22.40
2022-12-31T08:26:53.296Z,18.37
2022-12-31T08:29:41.123Z,17.80
2022-12-31T08:32:24.319Z,18.63
2022-12-31T08:35:19.434Z,17.70
2022-12-31T08:38:06.427Z,19.50
2022-12-31T08:41:05.915Z,18.87
2022-12-31T08:44:03.027Z,19.60
2022-12-31T08:46:40.109Z,19.00
2022-12-31T08:49:10.026Z,19.10
2022-12-31T08:51:37.418Z,18.27
2022-12-31T08:54:04.810Z,18.43
2022-12-31T08:57:14.465Z,19.90
2022-12-31T09:00:12.404Z,18.97
2022-12-31T09:03:19.985Z,19.37
2022-12-31T09:05:54.297Z,18.87
2022-12-31T09:08:54.774Z,19.80
2022-12-31T09:11:48.605Z,18.67
2022-12-31T09:14:39.095Z,18.87
2022-12-31T09:17:52.155Z,17.60
2022-12-31T09:20:32.482Z,17.90
2022-12-31T09:23:08.906Z,17.03
2022-12-31T09:25:57.200Z,17.37
2022-12-31T09:28:48.176Z,18.30
2022-12-31T09:31:31.906Z,18.40
2022-12-31T09:34:29.889Z,17.83
2022-12-31T09:37:18.448Z,17.33
2022-12-31T09:39:47.959Z,18.57
2022-12-31T09:42:49.352Z,18.73
2022-12-31T09:46:05.080Z,18.10
2022-12-31T09:49:10.856Z,18.27
2022-12-31T09:52:15.356Z,17.83
2022-12-31T09:55:22.325Z,17.00
2022-12-31T09:58:12.314Z,15.73
2022-12-31T10:00:52.088Z,15.70
2022-12-31T10:03:51.933Z,17.27
2022-12-31T10:06:31.839Z,16.97
2022-12-31T10:09:20.733Z,16.60
2022-12-31T10:12:23.623Z,15.90
2022-12-31T10:14:59.477Z,17.27
2022-12-31T10:17:38.253Z,18.90
2022-12-31T10:21:13.114Z,20.33
2022-12-31T10:24:15.957Z,19.83
2022-12-31T10:27:14.098Z,18.97
2022-12-31T10:30:12.067Z,18.53
2022-12-31T10:32:42.856Z,19.50
2022-12-31T10:35:39.924Z,17.83
2022-12-31T10:38:30.983Z,18.30
2022-12-31T10:41:22.365Z,17.83
2022-12-31T10:44:32.684Z,17.60
2022-12-31T10:47:21.663Z,15.83
2022-12-31T10:50:15.826Z,17.80
2022-12-31T10:53:42.273Z,17.10
2022-12-31T10:56:44.439Z,17.90
2022-12-31T10:59:45.169Z,17.07
2022-12-31T11:03:16.382Z,15.43
2022-12-31T11:06:31.935Z,18.90
2022-12-31T11:09:28.629Z,16.20
2022-12-31T11:12:10.632Z,16.87
2022-12-31T11:15:22.046Z,16.97
2022-12-31T11:18:03.936Z,15.80
2022-12-31T11:20:56.265Z,15.60
2022-12-31T11:23:53.204Z,17.43
2022-12-31T11:26:58.138Z,16.90
2022-12-31T11:29:49.685Z,16.47
2022-12-31T11:32:44.619Z,16.37
2022-12-31T11:36:01.478Z,18.17
2022-12-31T11:38:33.749Z,15.00
2022-12-31T11:41:31.171Z,15.07
2022-12-31T11:44:15.388Z,17.20
2022-12-31T11:47:10.152Z,14.20
2022-12-31T11:50:03.784Z,14.33
2022-12-31T11:52:49.694Z,13.30
2022-12-31T11:56:04.227Z,12.40
2022-12-31T11:58:31.554Z,12.50
2022-12-31T12:01:12.784Z,13.23
2022-12-31T12:03:43.661Z,17.70
2022-12-31T12:06:23.524Z,16.90
2022-12-31T12:08:57.400Z,13.47
2022-12-31T12:11:28.087Z,14.30
2022-12-31T12:13:54.986Z,12.77
2022-12-31T12:16:22.847Z,13.70
2022-12-31T12:19:06.066Z,12.47
2022-12-31T12:21:34.127Z,12.90
2022-12-31T12:24:34.559Z,12.50
2022-12-31T12:27:01.454Z,12.60
2022-12-31T12:29:35.576Z,12.27
2022-12-31T12:32:16.001Z,12.60
2022-12-31T12:34:49.326Z,11.77
2022-12-31T12:37:35.500Z,11.10
2022-12-31T12:40:33.335Z,11.57
2022-12-31T12:43:02.553Z,12.13
2022-12-31T12:45:51.421Z,11.93
2022-12-31T12:48:41.545Z,13.17
2022-12-31T12:51:49.991Z,12.90
2022-12-31T12:54:49.551Z,12.30
2022-12-31T12:57:29.679Z,11.47
2022-12-31T13:00:23.477Z,10.77
2022-12-31T13:03:24.492Z,11.23
2022-12-31T13:06:26.715Z,12.67
2022-12-31T13:09:25.574Z,14.70
2022-12-31T13:12:22.190Z,13.23
2022-12-31T13:15:12.854Z,12.57
2022-12-31T13:18:01.650Z,12.90
2022-12-31T13:20:52.963Z,13.50
2022-12-31T13:23:45.853Z,12.77
2022-12-31T13:26:23.193Z,15.43
2022-12-31T13:28:52.919Z,14.83
2022-12-31T13:31:29.748Z,18.57
2022-12-31T13:34:04.849Z,10.67
2022-12-31T13:36:35.468Z,12.90
2022-12-31T13:39:05.990Z,13.27
2022-12-31T13:42:02.915Z,14.47
2022-12-31T13:44:39.945Z,13.50
2022-12-31T13:47:27.530Z,14.53
2022-12-31T13:50:23.638Z,15.03
2022-12-31T13:53:05.906Z,14.67
2022-12-31T13:55:40.289Z,15.57
2022-12-31T13:58:37.452Z,14.50
2022-12-31T14:01:37.046Z,14.70
2022-12-31T14:04:27.758Z,14.47
2022-12-31T14:07:21.783Z,14.50
2022-12-31T14:09:48.972Z,17.10
2022-12-31T14:12:33.754Z,17.73
2022-12-31T14:15:24.330Z,16.47
2022-12-31T14:18:07.046Z,16.47
2022-12-31T14:20:55.878Z,17.37
2022-12-31T14:23:38.452Z,16.90
2022-12-31T14:26:21.176Z,15.17
2022-12-31T14:29:02.731Z,13.90
2022-12-31T14:31:43.925Z,13.60
2022-12-31T14:34:54.815Z,13.90
2022-12-31T14:37:45.090Z,13.83
2022-12-31T14:40:32.902Z,13.43
2022-12-31T14:43:24.509Z,14.13
2022-12-31T14:46:10.442Z,12.90
2022-12-31T14:49:13.978Z,16.67
2022-12-31T14:51:41.547Z,14.40
2022-12-31T14:54:44.109Z,14.10
2022-12-31T14:57:24.838Z,14.97
2022-12-31T14:59:57.171Z,14.10
2022-12-31T15:02:32.610Z,15.23
2022-12-31T15:05:21.540Z,20.90
2022-12-31T15:07:52.414Z,17.43
2022-12-31T15:10:38.314Z,18.07
2022-12-31T15:13:31.727Z,16.30
2022-12-31T15:16:45.158Z,15.80
2022-12-31T15:19:49.407Z,16.07
2022-12-31T15:22:46.126Z,16.23
2022-12-31T15:25:40.765Z,16.00
2022-12-31T15:28:37.835Z,14.47
2022-12-31T15:31:20.236Z,15.47
2022-12-31T15:33:58.268Z,22.73
2022-12-31T15:36:30.823Z,26.23
2022-12-31T15:39:42.741Z,17.03
2022-12-31T15:42:38.659Z,16.53
2022-12-31T15:45:15.011Z,16.20
2022-12-31T15:47:47.038Z,18.20
2022-12-31T15:50:22.852Z,16.93
2022-12-31T15:53:00.170Z,16.67
2022-12-31T15:55:52.290Z,15.50
2022-12-31T15:58:23.613Z,17.63
2022-12-31T16:01:29.312Z,16.50
2022-12-31T16:04:14.220Z,15.60
2022-12-31T16:06:44.906Z,17.70
2022-12-31T16:09:23.188Z,15.70
2022-12-31T16:11:52.241Z,16.70
2022-12-31T16:14:36.946Z,17.43
2022-12-31T16:17:31.902Z,17.37
2022-12-31T16:20:01.041Z,17.87
2022-12-31T16:22:36.512Z,19.07
2022-12-31T16:27:54.915Z,20.77
2022-12-31T16:30:32.018Z,21.70
2022-12-31T16:33:06.472Z,20.50
2022-12-31T16:35:38.855Z,20.03
2022-12-31T16:38:19.568Z,20.00
2022-12-31T16:41:01.713Z,20.30
2022-12-31T16:43:41.733Z,21.27
2022-12-31T16:46:19.844Z,20.23
2022-12-31T16:49:00.097Z,20.60
2022-12-31T16:51:32.878Z,20.37
2022-12-31T16:54:02.181Z,19.73
2022-12-31T16:56:37.377Z,19.53
2022-12-31T16:59:16.438Z,20.20
2022-12-31T17:01:43.986Z,18.70
2022-12-31T17:04:16.809Z,18.97
2022-12-31T17:06:44.037Z,19.67
2022-12-31T17:09:20.971Z,19.37
2022-12-31T17:12:10.033Z,17.80
2022-12-31T17:14:51.559Z,18.60
2022-12-31T17:17:27.940Z,20.93
2022-12-31T17:20:00.800Z,19.60
2022-12-31T17:22:36.765Z,18.77
2022-12-31T17:25:18.470Z,21.03
2022-12-31T17:27:58.305Z,20.37
2022-12-31T17:30:28.220Z,19.93
2022-12-31T17:33:05.089Z,23.67
2022-12-31T17:35:44.781Z,23.60
2022-12-31T17:38:30.320Z,21.73
2022-12-31T17:41:26.450Z,22.47
2022-12-31T17:43:57.670Z,21.87
2022-12-31T17:46:26.092Z,21.07
2022-12-31T17:49:01.943Z,22.40
2022-12-31T17:51:28.865Z,21.97
2022-12-31T17:53:55.861Z,23.97
2022-12-31T17:56:22.942Z,23.20
2022-12-31T17:58:52.580Z,23.27
2022-12-31T18:01:22.992Z,21.90
2022-12-31T18:03:50.259Z,23.83
2022-12-31T18:06:19.478Z,23.10
2022-12-31T18:08:46.834Z,22.90
2022-12-31T18:11:21.832Z,23.67
2022-12-31T18:13:48.943Z,22.20
2022-12-31T18:16:16.348Z,25.30
2022-12-31T18:18:45.132Z,24.10
2022-12-31T18:21:25.522Z,22.10
2022-12-31T18:26:22.496Z,27.90
2022-12-31T18:28:50.100Z,31.27
2022-12-31T18:31:29.195Z,32.60
2022-12-31T18:33:58.520Z,31.17
2022-12-31T18:36:26.976Z,31.63
2022-12-31T18:38:54.041Z,31.13
2022-12-31T18:41:26.798Z,32.53
2022-12-31T18:43:54.684Z,33.70
2022-12-31T18:46:24.259Z,30.77
2022-12-31T18:48:51.308Z,34.30
2022-12-31T18:51:26.468Z,35.03
2022-12-31T18:53:58.817Z,32.30
2022-12-31T18:56:25.931Z,33.43
2022-12-31T18:58:52.880Z,34.70
2022-12-31T19:01:35.719Z,31.97
2022-12-31T19:04:12.962Z,34.50
2022-12-31T19:06:40.083Z,34.80
2022-12-31T19:09:23.719Z,32.30
2022-12-31T19:11:54.248Z,32.43
2022-12-31T19:14:25.804Z,33.57
2022-12-31T19:19:26.175Z,35.80
2022-12-31T19:21:53.099Z,36.33
2022-12-31T19:24:23.436Z,38.37
2022-12-31T19:26:50.872Z,34.33
2022-12-31T19:29:19.735Z,39.00
2022-12-31T19:31:47.512Z,42.97
2022-12-31T19:34:14.712Z,39.87
2022-12-31T19:36:44.236Z,36.40
2022-12-31T19:39:18.044Z,34.50
2022-12-31T19:41:47.555Z,32.50
2022-12-31T19:44:19.692Z,34.83
2022-12-31T19:46:49.081Z,35.40
2022-12-31T19:49:16.337Z,37.00
2022-12-31T19:51:43.426Z,37.40
2022-12-31T19:54:12.999Z,36.50
2022-12-31T19:56:40.098Z,38.20
2022-12-31T19:59:09.061Z,35.93
2022-12-31T20:01:36.113Z,37.70
2022-12-31T20:04:03.233Z,39.53
2022-12-31T20:06:30.293Z,38.50
2022-12-31T20:08:57.164Z,40.43
2022-12-31T20:11:24.908Z,38.70
2022-12-31T20:13:53.807Z,43.47
2022-12-31T20:16:24.088Z,39.97
2022-12-31T20:18:51.228Z,39.87
2022-12-31T20:21:28.185Z,43.30
2022-12-31T20:23:55.474Z,44.13
2022-12-31T20:26:24.822Z,41.00
2022-12-31T20:28:52.671Z,44.00
2022-12-31T20:31:24.026Z,41.10
2022-12-31T20:33:53.599Z,44.23
2022-12-31T20:36:20.767Z,42.77
2022-12-31T20:38:48.455Z,42.97
2022-12-31T20:41:19.880Z,43.00
2022-12-31T20:43:47.925Z,41.27
2022-12-31T20:46:25.029Z,42.27
2022-12-31T20:48:54.482Z,41.53
2022-12-31T20:51:23.135Z,41.87
2022-12-31T20:54:02.659Z,39.53
2022-12-31T20:56:33.171Z,43.30
2022-12-31T20:59:01.287Z,39.90
2022-12-31T21:01:41.785Z,38.03
2022-12-31T21:04:16.417Z,37.03
2022-12-31T21:06:43.541Z,36.30
2022-12-31T21:09:10.553Z,41.00
2022-12-31T21:11:56.388Z,37.50
2022-12-31T21:14:23.310Z,38.27
2022-12-31T21:16:50.779Z,36.00
2022-12-31T21:19:17.751Z,38.03
2022-12-31T21:21:44.706Z,38.67
2022-12-31T21:24:11.755Z,40.77
2022-12-31T21:26:38.620Z,39.23
2022-12-31T21:29:05.503Z,37.47
2022-12-31T21:31:32.450Z,36.10
2022-12-31T21:33:59.374Z,34.90
2022-12-31T21:36:26.416Z,36.50
2022-12-31T21:38:53.387Z,35.33
2022-12-31T21:41:39.091Z,33.77
2022-12-31T21:44:06.114Z,28.87
2022-12-31T21:46:34.251Z,26.70
2022-12-31T21:49:01.363Z,27.50
2022-12-31T21:51:29.305Z,25.70
2022-12-31T21:53:56.360Z,24.93
2022-12-31T21:56:23.541Z,25.43
2022-12-31T21:59:16.623Z,27.30
2022-12-31T22:02:02.464Z,26.10
2022-12-31T22:05:01.802Z,26.90
2022-12-31T22:07:16.867Z,25.70
2022-12-31T22:09:43.758Z,26.07
2022-12-31T22:12:10.675Z,27.40
2022-12-31T22:14:37.619Z,27.37
2022-12-31T22:17:04.680Z,24.77
2022-12-31T22:19:33.651Z,26.87
2022-12-31T22:22:10.644Z,28.10
2022-12-31T22:24:37.535Z,29.23
2022-12-31T22:27:29.259Z,27.70
2022-12-31T22:29:51.469Z,30.03
2022-12-31T22:32:18.320Z,31.13
2022-12-31T22:34:45.348Z,32.33
2022-12-31T22:37:35.847Z,36.87
2022-12-31T22:39:59.242Z,36.13
2022-12-31T22:42:26.138Z,35.80
2022-12-31T22:44:53.008Z,37.97
2022-12-31T22:47:19.901Z,34.83
2022-12-31T22:49:46.800Z,35.97
2022-12-31T22:52:13.735Z,35.70
2022-12-31T22:54:40.559Z,32.97
2022-12-31T22:57:07.590Z,37.10
2022-12-31T22:59:34.520Z,41.33
2022-12-31T23:02:01.549Z,35.13
2022-12-31T23:04:28.607Z,33.20
2022-12-31T23:06:55.680Z,31.10
2022-12-31T23:09:41.434Z,31.97
2022-12-31T23:12:09.726Z,35.23
2022-12-31T23:14:55.419Z,49.07
2022-12-31T23:17:44.581Z,36.03
2022-12-31T23:20:38.483Z,31.57
2022-12-31T23:23:10.219Z,32.23
2022-12-31T23:25:42.739Z,30.93
2022-12-31T23:28:17.563Z,27.37
2022-12-31T23:30:44.931Z,29.60
2022-12-31T23:33:22.141Z,30.63
2022-12-31T23:35:49.257Z,32.37
2022-12-31T23:38:18.067Z,49.10
2022-12-31T23:40:45.803Z,50.17
2022-12-31T23:43:21.439Z,49.70
2022-12-31T23:45:50.596Z,39.03
2022-12-31T23:48:17.434Z,29.07
2022-12-31T23:50:49.219Z,28.43
2022-12-31T23:53:19.544Z,32.77
2022-12-31T23:55:46.439Z,34.80
2022-12-31T23:58:13.366Z,36.27
